createdAt,value
2019-01-12T03:07:31.471Z,2.50
2019-01-12T03:10:12.464Z,2.00
2019-01-12T03:12:53.533Z,2.00
2019-01-12T03:15:34.634Z,2.00
2019-01-12T03:18:15.985Z,2.00
2019-01-12T03:20:57.394Z,2.00
2019-01-12T03:23:38.537Z,2.00
2019-01-12T03:26:19.251Z,1.90
2019-01-12T03:29:00.642Z,1.90
2019-01-12T03:31:41.460Z,1.90
2019-01-12T03:34:23.043Z,1.90
2019-01-12T03:37:04.246Z,1.80
2019-01-12T03:39:44.925Z,1.80
2019-01-12T03:42:25.732Z,1.80
2019-01-12T03:45:06.644Z,1.80
2019-01-12T03:47:48.114Z,1.70
2019-01-12T03:50:29.522Z,1.70
2019-01-12T03:53:10.874Z,1.70
2019-01-12T03:55:52.034Z,1.70
2019-01-12T03:58:32.649Z,1.60
2019-01-12T04:01:13.677Z,1.60
2019-01-12T04:03:54.677Z,1.60
2019-01-12T04:06:34.833Z,1.60
2019-01-12T04:09:23.405Z,1.60
2019-01-12T04:12:04.140Z,1.50
2019-01-12T04:14:45.425Z,1.50
2019-01-12T04:17:26.084Z,1.50
2019-01-12T04:20:07.425Z,1.50
2019-01-12T04:22:48.175Z,1.50
2019-01-12T04:25:33.899Z,1.50
2019-01-12T04:28:12.325Z,1.40
2019-01-12T04:30:53.330Z,1.40
2019-01-12T04:33:34.907Z,1.40
2019-01-12T04:36:15.964Z,1.40
2019-01-12T04:38:56.731Z,1.30
2019-01-12T04:41:37.449Z,1.30
2019-01-12T04:44:18.501Z,1.30
2019-01-12T04:46:59.803Z,1.30
2019-01-12T04:49:40.785Z,1.30
2019-01-12T04:52:22.064Z,1.30
2019-01-12T04:55:03.672Z,1.20
2019-01-12T04:57:45.189Z,1.20
2019-01-12T05:00:26.204Z,1.20
2019-01-12T05:03:07.297Z,1.20
2019-01-12T05:05:47.906Z,1.20
2019-01-12T05:08:28.782Z,1.10
2019-01-12T05:11:09.604Z,1.10
2019-01-12T05:13:51.037Z,1.10
2019-01-12T05:16:32.448Z,1.10
2019-01-12T05:19:13.215Z,1.10
2019-01-12T05:21:54.350Z,1.10
2019-01-12T05:24:35.788Z,1.10
2019-01-12T05:27:16.750Z,1.10
2019-01-12T05:29:58.183Z,1.00
2019-01-12T05:32:39.261Z,1.00
2019-01-12T05:35:20.541Z,1.00
2019-01-12T05:38:01.765Z,1.00
2019-01-12T05:40:42.515Z,1.00
2019-01-12T05:43:22.353Z,1.00
2019-01-12T05:46:10.866Z,1.10
2019-01-12T05:48:51.468Z,1.00
2019-01-12T05:51:31.075Z,1.00
2019-01-12T05:54:11.937Z,1.00
2019-01-12T05:56:52.681Z,1.00
2019-01-12T05:59:34.141Z,1.00
2019-01-12T06:02:14.989Z,1.00
2019-01-12T06:04:56.425Z,1.10
2019-01-12T06:07:37.706Z,1.10
2019-01-12T06:10:18.397Z,1.00
2019-01-12T06:13:00.019Z,1.00
2019-01-12T06:15:41.135Z,0.90
2019-01-12T06:18:21.984Z,0.90
2019-01-12T06:21:02.693Z,0.80
2019-01-12T06:23:43.795Z,0.80
2019-01-12T06:26:25.159Z,0.80
2019-01-12T06:29:06.213Z,0.80
2019-01-12T06:31:47.037Z,0.80
2019-01-12T06:34:28.112Z,0.80
2019-01-12T06:37:09.449Z,0.70
2019-01-12T06:39:50.895Z,0.70
2019-01-12T06:42:31.631Z,0.70
2019-01-12T06:45:13.286Z,0.70
2019-01-12T06:47:53.261Z,0.70
2019-01-12T06:50:41.770Z,0.60
2019-01-12T06:53:22.521Z,0.60
2019-01-12T06:56:03.175Z,0.60
2019-01-12T06:58:44.242Z,0.60
2019-01-12T07:01:25.749Z,0.50
2019-01-12T07:04:07.148Z,0.50
2019-01-12T07:06:46.835Z,0.50
2019-01-12T07:09:26.456Z,0.50
2019-01-12T07:12:14.974Z,0.50
2019-01-12T07:14:56.215Z,0.50
2019-01-12T07:17:37.432Z,0.50
2019-01-12T07:20:17.413Z,0.60
2019-01-12T07:23:05.975Z,0.50
2019-01-12T07:25:46.981Z,0.50
2019-01-12T07:28:28.624Z,0.50
2019-01-12T07:31:08.171Z,0.50
2019-01-12T07:33:56.707Z,0.50
2019-01-12T07:36:37.601Z,0.60
2019-01-12T07:39:19.099Z,0.60
2019-01-12T07:42:00.204Z,0.60
2019-01-12T07:44:41.516Z,0.60
2019-01-12T07:47:23.003Z,0.60
2019-01-12T07:50:03.760Z,0.60
2019-01-12T07:52:43.895Z,0.70
2019-01-12T07:55:32.440Z,0.70
2019-01-12T07:58:11.984Z,0.80
2019-01-12T08:01:00.539Z,0.90
2019-01-12T08:03:41.685Z,0.90
2019-01-12T08:06:23.180Z,0.90
2019-01-12T08:09:04.030Z,0.90
2019-01-12T08:11:45.575Z,0.90
2019-01-12T08:14:26.605Z,1.00
2019-01-12T08:17:07.285Z,1.00
2019-01-12T08:19:48.064Z,1.10
2019-01-12T08:22:29.783Z,1.20
2019-01-12T08:25:10.887Z,1.20
2019-01-12T08:27:51.602Z,1.30
2019-01-12T08:30:32.741Z,1.30
2019-01-12T08:33:14.180Z,1.40
2019-01-12T08:35:55.493Z,1.40
2019-01-12T08:38:36.529Z,1.50
2019-01-12T08:41:17.929Z,1.50
2019-01-12T08:43:57.639Z,1.50
2019-01-12T08:46:39.051Z,1.60
2019-01-12T08:49:20.401Z,1.60
2019-01-12T08:52:01.026Z,1.60
2019-01-12T08:54:40.956Z,1.70
2019-01-12T08:57:22.374Z,1.80
2019-01-12T09:00:03.689Z,1.80
2019-01-12T09:02:44.881Z,1.90
2019-01-12T09:05:26.577Z,1.90
2019-01-12T09:08:06.245Z,2.00
2019-01-12T09:13:54.984Z,2.10
2019-01-12T09:16:36.422Z,2.20
2019-01-12T09:19:17.758Z,2.30
2019-01-12T09:21:58.824Z,2.40
2019-01-12T09:24:39.963Z,2.40
2019-01-12T09:27:21.416Z,2.40
2019-01-12T09:30:02.525Z,2.50
2019-01-12T09:32:42.105Z,2.50
2019-01-12T09:35:23.509Z,2.50
2019-01-12T09:38:03.248Z,2.50
2019-01-12T09:40:44.386Z,2.50
2019-01-12T09:43:26.018Z,2.50
2019-01-12T09:46:07.051Z,2.50
2019-01-12T09:48:48.365Z,2.60
2019-01-12T09:51:29.387Z,2.60
2019-01-12T09:54:09.128Z,2.60
2019-01-12T09:56:51.923Z,2.60
2019-01-12T09:59:33.231Z,2.70
2019-01-12T10:02:14.592Z,2.70
2019-01-12T10:04:55.970Z,2.80
2019-01-12T10:10:35.607Z,2.90
2019-01-12T10:13:17.155Z,3.10
2019-01-12T10:15:57.823Z,3.10
2019-01-12T10:18:38.039Z,3.30
2019-01-12T10:21:19.559Z,3.40
2019-01-12T10:23:59.252Z,3.50
2019-01-12T10:38:34.196Z,3.70
2019-01-12T10:41:14.852Z,4.30
2019-01-12T10:43:56.049Z,4.40
2019-01-12T10:46:36.696Z,4.50
2019-01-12T10:55:16.403Z,4.70
2019-01-12T10:57:57.664Z,4.90
2019-01-12T11:00:38.908Z,5.00
2019-01-12T11:03:20.489Z,5.00
2019-01-12T11:06:01.463Z,5.00
2019-01-12T11:08:42.950Z,5.00
2019-01-12T11:11:23.869Z,5.00
2019-01-12T11:14:04.781Z,5.00
2019-01-12T11:16:45.904Z,5.00
2019-01-12T11:19:27.441Z,5.00
2019-01-12T11:22:08.476Z,5.00
2019-01-12T11:24:49.660Z,5.00
2019-01-12T11:27:32.146Z,5.10
2019-01-12T11:30:13.531Z,5.10
2019-01-12T11:32:54.555Z,5.20
2019-01-12T11:35:35.639Z,5.20
2019-01-12T11:38:16.827Z,5.30
2019-01-12T11:40:57.703Z,5.40
2019-01-12T11:43:39.149Z,5.40
2019-01-12T11:46:20.684Z,5.50
2019-01-12T11:49:02.094Z,5.60
2019-01-12T11:51:43.444Z,5.60
2019-01-12T11:54:24.169Z,5.70
2019-01-12T11:57:04.065Z,5.70
2019-01-12T11:59:45.140Z,5.70
2019-01-12T12:02:26.146Z,5.80
2019-01-12T12:14:03.308Z,5.80
2019-01-12T12:16:42.911Z,6.00
2019-01-12T12:19:24.321Z,6.00
2019-01-12T12:22:05.456Z,6.10
2019-01-12T12:24:46.804Z,6.10
2019-01-12T12:27:27.611Z,6.10
2019-01-12T12:30:08.663Z,6.10
2019-01-12T12:32:48.205Z,6.10
2019-01-12T12:35:29.268Z,6.10
2019-01-12T12:38:10.259Z,6.20
2019-01-12T12:40:51.267Z,6.20
2019-01-12T12:43:31.945Z,6.20
2019-01-12T12:46:13.444Z,6.20
2019-01-12T12:48:54.148Z,6.20
2019-01-12T12:51:35.148Z,6.20
2019-01-12T12:54:16.424Z,6.30
2019-01-12T12:56:58.048Z,6.40
2019-01-12T12:59:38.928Z,6.40
2019-01-12T13:02:20.490Z,6.40
2019-01-12T13:05:01.941Z,6.40
2019-01-12T13:07:43.210Z,6.40
2019-01-12T13:10:25.254Z,6.30
2019-01-12T13:13:06.287Z,6.40
2019-01-12T13:15:47.607Z,6.30
2019-01-12T13:18:28.429Z,6.30
2019-01-12T13:21:09.212Z,6.30
2019-01-12T13:23:48.722Z,6.40
2019-01-12T13:26:37.224Z,6.40
2019-01-12T13:29:18.136Z,6.40
2019-01-12T13:31:59.580Z,6.40
2019-01-12T13:34:40.812Z,6.40
2019-01-12T13:37:22.223Z,6.50
2019-01-12T13:40:04.728Z,6.50
2019-01-12T13:42:44.387Z,6.50
2019-01-12T13:45:23.979Z,6.40
2019-01-12T13:48:12.508Z,6.40
2019-01-12T13:50:53.201Z,6.50
2019-01-12T13:53:34.159Z,6.50
2019-01-12T13:56:15.675Z,6.50
2019-01-12T13:58:56.957Z,6.60
2019-01-12T14:01:40.012Z,6.50
2019-01-12T14:04:20.835Z,6.50
2019-01-12T14:07:01.740Z,6.50
2019-01-12T14:09:42.449Z,6.60
2019-01-12T14:12:23.924Z,6.50
2019-01-12T14:15:03.825Z,6.50
2019-01-12T14:17:45.248Z,6.50
2019-01-12T14:20:26.719Z,6.50
2019-01-12T14:23:07.994Z,6.50
2019-01-12T14:25:48.676Z,6.50
2019-01-12T14:28:29.776Z,6.50
2019-01-12T14:31:10.457Z,6.50
2019-01-12T14:33:51.459Z,6.50
2019-01-12T14:36:32.189Z,6.50
2019-01-12T14:39:13.344Z,6.50
2019-01-12T14:41:54.304Z,6.40
2019-01-12T14:44:35.112Z,6.40
2019-01-12T14:47:16.384Z,6.30
2019-01-12T14:49:57.809Z,6.30
2019-01-12T14:52:38.518Z,6.20
2019-01-12T14:55:18.078Z,6.20
2019-01-12T14:58:07.032Z,6.20
2019-01-12T15:00:48.495Z,6.20
2019-01-12T15:03:28.075Z,6.10
2019-01-12T15:06:09.017Z,6.10
2019-01-12T15:08:49.816Z,6.00
2019-01-12T15:11:29.351Z,5.90
2019-01-12T15:14:17.907Z,5.90
2019-01-12T15:16:59.080Z,5.90
2019-01-12T15:19:40.144Z,5.80
2019-01-12T15:22:21.080Z,5.80
2019-01-12T15:25:02.299Z,5.70
2019-01-12T15:27:43.785Z,5.70
2019-01-12T15:30:24.888Z,5.60
2019-01-12T15:33:05.911Z,5.50
2019-01-12T15:35:54.508Z,5.50
2019-01-12T15:38:35.581Z,5.50
2019-01-12T15:41:17.067Z,5.40
2019-01-12T15:43:57.951Z,5.40
2019-01-12T15:46:39.475Z,5.40
2019-01-12T15:49:20.916Z,5.30
2019-01-12T15:52:02.591Z,5.30
2019-01-12T15:54:43.606Z,5.20
2019-01-12T15:57:23.116Z,5.20
2019-01-12T16:00:04.681Z,5.10
2019-01-12T16:02:45.971Z,5.00
2019-01-12T16:05:27.454Z,4.90
2019-01-12T16:13:28.800Z,4.90
2019-01-12T16:16:10.191Z,4.70
2019-01-12T16:18:51.583Z,4.60
2019-01-12T17:03:13.867Z,4.60
2019-01-12T17:05:55.336Z,3.90
2019-01-12T17:08:36.704Z,3.90
2019-01-12T17:11:17.453Z,3.80
2019-01-12T17:13:58.645Z,3.80
2019-01-12T17:16:39.411Z,3.80
2019-01-12T17:19:20.485Z,3.80
2019-01-12T17:22:01.680Z,3.80
2019-01-12T17:24:43.077Z,3.80
2019-01-12T17:27:24.328Z,3.80
2019-01-12T17:30:05.307Z,3.70
2019-01-12T17:32:46.268Z,3.70
2019-01-12T17:35:27.328Z,3.70
2019-01-12T17:38:08.909Z,3.60
2019-01-12T17:43:49.029Z,3.60
2019-01-12T17:46:30.803Z,3.50
2019-01-12T17:49:12.380Z,3.50
2019-01-12T17:51:54.012Z,3.40
2019-01-12T17:54:34.943Z,3.40
2019-01-12T17:57:16.536Z,3.40
2019-01-12T17:59:57.835Z,3.40
2019-01-12T18:02:38.638Z,3.40
2019-01-12T18:05:19.549Z,3.40
2019-01-12T18:08:00.199Z,3.40
2019-01-12T18:10:41.720Z,3.30
2019-01-12T18:13:21.987Z,3.30
2019-01-12T18:16:01.611Z,3.30
2019-01-12T18:18:50.117Z,3.30
2019-01-12T18:21:31.208Z,3.30
2019-01-12T18:24:11.959Z,3.30
2019-01-12T18:26:52.684Z,3.20
2019-01-12T18:29:34.347Z,3.20
2019-01-12T18:32:15.375Z,3.20
2019-01-12T18:34:56.052Z,3.20
2019-01-12T18:37:37.151Z,3.20
2019-01-12T18:40:18.135Z,3.20
2019-01-12T18:42:59.612Z,3.20
2019-01-12T18:45:41.005Z,3.20
2019-01-12T18:48:22.408Z,3.20
2019-01-12T18:51:03.499Z,3.20
2019-01-12T18:53:44.942Z,3.20
2019-01-12T18:56:24.528Z,3.20
2019-01-12T18:59:05.661Z,3.10
2019-01-12T19:01:45.177Z,3.10
2019-01-12T19:04:26.672Z,3.20
2019-01-12T19:07:07.419Z,3.20
2019-01-12T19:09:48.528Z,3.20
2019-01-12T19:12:28.016Z,3.10
2019-01-12T19:15:09.379Z,3.20
2019-01-12T19:17:50.038Z,3.10
2019-01-12T19:20:30.697Z,3.10
2019-01-12T19:23:11.847Z,3.10
2019-01-12T19:25:52.876Z,3.10
2019-01-12T19:28:34.192Z,3.10
2019-01-12T19:31:15.601Z,3.10
2019-01-12T19:33:56.272Z,3.10
2019-01-12T19:36:37.675Z,3.10
2019-01-12T19:39:19.010Z,3.10
2019-01-12T19:41:59.988Z,3.10
2019-01-12T19:44:40.883Z,3.10
2019-01-12T19:47:20.431Z,3.10
2019-01-12T19:53:00.456Z,3.00
2019-01-12T19:55:41.267Z,3.10
2019-01-12T19:58:22.565Z,3.00
2019-01-12T20:01:03.768Z,3.00
2019-01-12T20:03:45.087Z,3.10
2019-01-12T20:06:26.835Z,3.10
2019-01-12T20:12:06.869Z,3.00
2019-01-12T20:14:47.481Z,2.90
2019-01-12T20:17:28.697Z,2.90
2019-01-12T20:20:09.484Z,2.90
2019-01-12T20:22:50.463Z,2.90
2019-01-12T20:25:31.753Z,2.90
2019-01-12T20:28:12.782Z,2.90
2019-01-12T20:30:53.630Z,2.90
2019-01-12T20:33:34.229Z,2.80
2019-01-12T20:36:15.585Z,2.80
2019-01-12T20:38:56.153Z,2.80
2019-01-12T20:41:37.585Z,2.80
2019-01-12T20:44:18.668Z,2.80
2019-01-12T20:46:59.886Z,2.80
2019-01-12T20:49:41.209Z,2.90
2019-01-12T20:52:22.007Z,2.80
2019-01-12T20:55:03.570Z,2.80
2019-01-12T20:57:44.780Z,2.80
2019-01-12T21:00:26.156Z,2.80
2019-01-12T21:03:07.031Z,2.70
2019-01-12T21:05:48.368Z,2.80
2019-01-12T21:08:29.631Z,2.80
2019-01-12T21:11:14.177Z,2.80
2019-01-12T21:14:21.744Z,2.80
2019-01-12T21:17:02.484Z,2.80
2019-01-12T21:19:48.138Z,2.80
2019-01-12T21:22:26.589Z,2.80
2019-01-12T21:25:07.851Z,2.80
2019-01-12T21:27:49.343Z,2.80
2019-01-12T21:30:30.800Z,2.80
2019-01-12T21:33:12.068Z,2.80
2019-01-12T21:35:53.653Z,2.70
2019-01-12T21:38:34.762Z,2.80
2019-01-12T21:41:15.632Z,2.70
2019-01-12T21:43:56.842Z,2.70
2019-01-12T21:46:37.413Z,2.70
2019-01-12T21:49:18.946Z,2.70
2019-01-12T21:52:00.458Z,2.70
2019-01-12T21:54:42.033Z,2.70
2019-01-12T21:57:23.489Z,2.70
2019-01-12T22:00:04.896Z,2.70
2019-01-12T22:02:45.474Z,2.70
